Se encontraron 1176 coincidencias

por MetSul
Jue Abr 15, 2010 4:13 pm
Foro: Seguimientos Meteorológicos
Tema: Vaguada de lento desplazamiento del 11/04 al 15/04
Respuestas: 526
Vistas: 14000

Re: Vaguada de lento desplazamiento del 11/04 al 15/04

Gracias MetSul, por tu aporte, justo estaba escribiendo cuando posteaste, pero igual completo. El ojo en realidad es todo el aire seco que se está enrrollando alrededor del sistema de baja presión. Esa es una de las características fundamentales de los sistemas extratropicales que tenemos nosotros ...
por MetSul
Jue Abr 15, 2010 4:07 pm
Foro: Pronóstico del Tiempo
Tema: Tiempo cambiante e inestable en la segunda semana de Abril!
Respuestas: 220
Vistas: 8457

Re: Tiempo cambiante e inestable en la segunda semana de Abril!

AJAJAJAJAJAJAJAJAAJAJAJJA, yo quiero ver la salida de Europa, esa si metía miedo eh, ajajajajajajaa Europeo de las 12Z para SAEZ EUROPEAN MODEL FORECAST FOR: SAEZ LAT= -34.82 LON= -58.53 ELE= 66 12Z APR15 * - APPROXIMATED 850 SFC 500 1000 850 700 850 700 TMP PRS HGT 500 RHU RHU WIND WIND (C) (MB) (...
por MetSul
Jue Abr 15, 2010 4:04 pm
Foro: Reportajes internacionales
Tema: Europa: Caos aéreo por erupción en Islandia
Respuestas: 46
Vistas: 4301

Re: Europa: Caos aéreo por erupción en Islandia

Solo ahora miramos que hay unj forun para hechos fuera de Argentina.

Perdon.

Administradores, pueden mover el topico ?
por MetSul
Jue Abr 15, 2010 4:03 pm
Foro: Seguimientos Meteorológicos
Tema: Vaguada de lento desplazamiento del 11/04 al 15/04
Respuestas: 526
Vistas: 14000

Re: Vaguada de lento desplazamiento del 11/04 al 15/04

El ojo és carateristico de ciclones tropicales, pero puede formarse mas raramente en bajas extratropicales (centro frio). Hay la aparencia de un ojo, pero no se puede hablar de una parede de ojo como en huracanes. Es un centro de baja presion lo que hay ahora en el Rio de Plata, un ciclon extratropi...
por MetSul
Jue Abr 15, 2010 3:57 pm
Foro: Seguimientos Meteorológicos
Tema: Vaguada de lento desplazamiento del 11/04 al 15/04
Respuestas: 526
Vistas: 14000

Re: Vaguada de lento desplazamiento del 11/04 al 15/04

SUAA 151800Z 26029G42KT 5000 BKN010 OVC050 15/14 Q1002

SULS 151845Z 32026G36KT 1500 DZ BKN005 OVC070 14/12 Q1001
por MetSul
Jue Abr 15, 2010 3:42 pm
Foro: Seguimientos Meteorológicos
Tema: Vaguada de lento desplazamiento del 11/04 al 15/04
Respuestas: 526
Vistas: 14000

Re: Vaguada de lento desplazamiento del 11/04 al 15/04

MetUy puede oferecer detalles más ricos, pero el viento gana fuerza en Mdeo y la presion cae para 1002 (modelo GFS estaba correcto). SUMU 151800Z 29020G30KT 5000 -RA SCT010 OVC040 14/13 Q1002 TEMPO 5000 DZ SUMU 151700Z 31015G25KT 1200 RA SCT010 OVC040 14/13 Q1003 TEMPO 5000 DZ SUMU 151500Z 33015KT 3...
por MetSul
Jue Abr 15, 2010 1:04 pm
Foro: Seguimientos Meteorológicos
Tema: Vaguada de lento desplazamiento del 11/04 al 15/04
Respuestas: 526
Vistas: 14000

Re: Vaguada de lento desplazamiento del 11/04 al 15/04

Muruguay escribió: Y al parecer nadie registró la secuencia animada visible que compuse
Fue excelente.
por MetSul
Jue Abr 15, 2010 12:00 pm
Foro: Seguimientos Meteorológicos
Tema: Vaguada de lento desplazamiento del 11/04 al 15/04
Respuestas: 526
Vistas: 14000

Re: Vaguada de lento desplazamiento del 11/04 al 15/04

Encima Santa teresita, como me decía rami recién, tienNorte a 9, pero miren la presión, 997.5, que si bien no se a cuantos metro fue tomada, pidan la marcha y miden la que tenía ayer a la tarde, 1015, o sea casi le bajo 20 hPa en 18 horas, UNA BESTIA!! Casi una "bomba" http://amsglossary.allenpress...